Impacts METAR Board
IDs:

KCLT - Charlotte/Douglas In, NC, US

Updated at: 1300 UTC 25 Jun 2019
Potential Impact None Slight Moderate High
Time 25/01Z 25/02Z 25/03Z 25/04Z 25/05Z 25/06Z 25/07Z 25/08Z 25/09Z 25/10Z 25/11Z 25/12Z 25/13Z
Temp84 73 72 72 72 71 71 71 70 69 69 72 76
Dewpt68 68 69 69 70 69 69 68 67 67 67 68 68
Altim29.88 29.93 29.95 29.94 29.95 29.93 29.93 29.93 29.94 29.95 29.98 29.99 30.01
VIS9 3 5 8 8 9 8 8 6 8 8 8 10
CIG95 60 100 -- 5 150 5 5 250 250 250 250 --
CoverBKNBKNBKNSCTOVCOVCBKNOVCBKNBKNBKNBKNSCT
FltCatVFRMVFRMVFRVFRIFRVFRIFRIFRVFRVFRVFRVFRVFR
WX---TSRA BRRA BR-RA--------BR--------
WDir21021024029021023026026003100310290
WSpd8 6 6 3 4 3 4 5 0 3 0 4 4
WGst-- -- -- -- -- -- -- -- -- -- -- -- --
Raw hourly METARs
KCLT 250052Z 21008KT 9SM SCT080 BKN095 BKN120 29/20 A2988 RMK AO2 LTG DSNT W AND NW SLP107 T02890200
KCLT 250152Z 21006KT 3SM -TSRA BR FEW028 SCT040CB BKN060 23/20 A2993 RMK AO2 PK WND 24029/0114 LTG DSNT S-W RAB15 TSB35 SLP124 OCNL LTGICCCCA SW-W OCNL LTGICCCCA DSNT NW TS SW-W MOV E P0014 T02280200
KCLT 250252Z 24006KT 5SM RA BR FEW055 SCT070 BKN100 22/21 A2995 RMK AO2 LTG DSNT N AND NW TSE03 SLP132 OCNL LTGICCCCA DSNT S AND NW-N P0002 60016 T02220206 53028
KCLT 250352Z 29003KT 8SM -RA FEW010 FEW090 SCT120 22/21 A2994 RMK AO2 SLP130 OCNL LTGICCCCA DSNT S AND NW-N P0007 T02220206
KCLT 250452Z 21004KT 8SM BKN005 BKN110 OVC140 22/21 A2995 RMK AO2 RAE09 SLP132 P0000 T02220211 403330211
KCLT 250552Z 23003KT 9SM FEW005 FEW120 OVC150 22/21 A2993 RMK AO2 SLP126 60023 T02170206 10300 20217 58005
KCLT 250652Z 26004KT 8SM BKN005 BKN150 22/21 A2993 RMK AO2 SLP124 T02170206
KCLT 250752Z 26005KT 8SM OVC005 22/20 A2993 RMK AO2 SLP123 T02170200
KCLT 250903Z 00000KT 6SM BR SCT004 BKN250 21/19 A2994 RMK AO2 T02110194
KCLT 250952Z 31003KT 8SM FEW003 BKN250 21/19 A2995 RMK AO2 SLP131 T02060194
KCLT 251052Z 00000KT 8SM FEW005 BKN250 21/19 A2998 RMK AO2 SLP143 T02060194
KCLT 251152Z 31004KT 8SM BKN250 22/20 A2999 RMK AO2 SLP146 70023 T02220200 10222 20200 51020
KCLT 251252Z 29004KT 10SM FEW200 SCT250 24/20 A3001 RMK AO2 SLP151 T02440200



Page loaded:  13:51 UTC  |   06:51 AM Pacific  |   07:51 AM Mountain  |   08:51 AM Central  |   09:51 AM Eastern

 

ADVISORIES

FORECASTS

FORECASTS

OBSERVATIONS

USER TOOLS

ABOUT US